Etusivu
METAR-TAF:

METAR-TAF

Lentoasemat :

Halmstad, Ruotsi

Leveyspiiri: 56-41N, Pituuspiiri: 012-50E, korkeus merenpinnasta: 30 m

Tämänhetkinen sää

Tämä raportti tehtiin 32 minuuttia sitten, kello 23.50 UTC
Tuuli 15 kn idästä/koillisesta puuskistuen 25 kn:hen
Lämpötila 15°C
Kosteus 55%
Ilmanpaine 1002 hPa
Näkyvyys 10 km tai enemmän

METAR: ESMT 282350Z AUTO 07015G25KT 9999 SCT066/// 15/06 Q1002

Aika: 02:22 (00:22 UTC)

Sääennuste

Tämä raportti tehtiin 7 tuntia ja 25 minuuttia sitten, kello 16.57 UTC
Ennuste voimassa 28. päivästä klo 18 UTC - 28. päivään klo 21 UTC
Tuuli 15 kn idästä/kaakosta
Näkyvyys 10 km tai enemmän
Hajanaisia pilviä 3000 ft:n korkeudessa

TAF: ESMT 281657Z 2818/2821 12015KT 9999 SCT030

Säähavainnot ja -ennusteet yli 4000 lentoasemalta (METAR- ja TAF-raportit).

Käytössä olevat sääasemat on merkitty karttaan keltaisilla ja punaisilla pisteillä.

Aseta hiiri pisteen päälle nähdäksesi sääaseman nimen.

Klikkaa sitten nähdäksesi säähavainnot ja -ennusteet.

Kartan vaihtaminen: klikkaa mustalla rastilla varustettuja vihreitä pisteitä, niin voit zoomata sisään; viivalla varustettua vihreää pistettä, niin voit zoomata ulos tai vihreitä nuolia, niin pääset viereisille kartoille.


METAR-TAF: